createdAt,value
2018-03-20T00:00:54.272Z,23.50
2018-03-20T00:01:57.499Z,23.02
2018-03-20T00:03:00.737Z,24.73
2018-03-20T00:04:03.956Z,25.25
2018-03-20T00:05:07.214Z,24.10
2018-03-20T00:06:11.207Z,24.73
2018-03-20T00:07:15.279Z,25.42
2018-03-20T00:08:18.468Z,28.52
2018-03-20T00:09:21.710Z,25.90
2018-03-20T00:10:24.979Z,25.23
2018-03-20T00:11:28.211Z,24.25
2018-03-20T00:12:31.468Z,26.10
2018-03-20T00:13:34.752Z,26.85
2018-03-20T00:14:38.027Z,26.35
2018-03-20T00:15:41.247Z,25.98
2018-03-20T00:16:44.536Z,26.67
2018-03-20T00:17:48.730Z,24.95
2018-03-20T00:18:51.951Z,26.83
2018-03-20T00:19:55.952Z,24.50
2018-03-20T00:20:59.960Z,25.00
2018-03-20T00:22:03.925Z,26.50
2018-03-20T00:23:07.171Z,23.83
2018-03-20T00:24:10.412Z,26.75
2018-03-20T00:25:14.418Z,25.25
2018-03-20T00:26:17.657Z,26.73
2018-03-20T00:27:20.899Z,25.80
2018-03-20T00:28:24.171Z,26.67
2018-03-20T00:29:28.171Z,25.83
2018-03-20T00:30:31.480Z,25.02
2018-03-20T00:31:34.742Z,24.37
2018-03-20T00:32:38.746Z,25.25
2018-03-20T00:33:42.728Z,25.42
2018-03-20T00:34:46.751Z,25.73
2018-03-20T00:35:50.765Z,25.33
2018-03-20T00:36:53.995Z,26.85
2018-03-20T00:37:57.236Z,28.15
2018-03-20T00:39:00.521Z,27.17
2018-03-20T00:40:03.794Z,26.37
2018-03-20T00:41:07.020Z,25.98
2018-03-20T00:42:10.264Z,25.12
2018-03-20T00:43:13.501Z,25.40
2018-03-20T00:44:17.558Z,25.10
2018-03-20T00:45:20.806Z,25.15
2018-03-20T00:46:24.805Z,24.85
2018-03-20T00:47:28.823Z,25.58
2018-03-20T00:48:32.102Z,28.30
2018-03-20T00:49:35.326Z,25.05
2018-03-20T00:50:38.551Z,25.10
2018-03-20T00:51:41.797Z,25.50
2018-03-20T00:52:45.101Z,26.95
2018-03-20T00:53:48.332Z,26.10
2018-03-20T00:54:52.366Z,24.98
2018-03-20T00:55:55.603Z,26.30
2018-03-20T00:56:58.858Z,26.58
2018-03-20T00:58:02.059Z,26.95
2018-03-20T00:59:05.275Z,26.30
2018-03-20T01:00:09.265Z,27.00
2018-03-20T01:01:12.496Z,25.55
2018-03-20T01:02:15.792Z,26.87
2018-03-20T01:03:19.037Z,24.40
2018-03-20T01:04:22.308Z,26.25
2018-03-20T01:05:26.407Z,28.55
2018-03-20T01:06:29.796Z,27.50
2018-03-20T01:07:33.791Z,27.02
2018-03-20T01:08:37.009Z,28.80
2018-03-20T01:09:40.252Z,29.00
2018-03-20T01:10:43.486Z,28.20
2018-03-20T01:11:46.731Z,28.48
2018-03-20T01:12:51.109Z,28.92
2018-03-20T01:13:54.306Z,28.58
2018-03-20T01:14:57.553Z,29.70
2018-03-20T01:16:00.775Z,29.80
2018-03-20T01:17:04.027Z,29.55
2018-03-20T01:18:07.231Z,30.58
2018-03-20T01:19:10.475Z,29.10
2018-03-20T01:20:14.017Z,31.35
2018-03-20T01:21:17.226Z,29.02
2018-03-20T01:22:20.466Z,29.67
2018-03-20T01:23:23.710Z,28.45
2018-03-20T01:24:26.930Z,29.15
2018-03-20T01:25:30.240Z,29.80
2018-03-20T01:26:34.237Z,33.10
2018-03-20T01:27:38.257Z,31.00
2018-03-20T01:28:41.484Z,28.38
2018-03-20T01:29:44.710Z,30.42
2018-03-20T01:30:48.698Z,31.67
2018-03-20T01:31:52.691Z,30.12
2018-03-20T01:32:56.024Z,30.25
2018-03-20T01:33:59.343Z,29.12
2018-03-20T01:35:02.597Z,30.50
2018-03-20T01:36:05.863Z,28.98
2018-03-20T01:37:09.102Z,28.85
2018-03-20T01:38:12.327Z,28.48
2018-03-20T01:39:15.553Z,28.10
2018-03-20T01:40:18.828Z,29.60
2018-03-20T01:41:22.047Z,31.58
2018-03-20T01:42:25.286Z,30.60
2018-03-20T01:43:28.512Z,30.85
2018-03-20T01:44:31.741Z,30.37
2018-03-20T01:45:34.962Z,30.12
2018-03-20T01:46:39.725Z,31.50
2018-03-20T01:47:43.703Z,30.92
2018-03-20T01:48:47.677Z,31.87
2018-03-20T01:49:50.936Z,30.80
2018-03-20T01:50:54.942Z,30.12
2018-03-20T01:51:58.981Z,29.60
2018-03-20T01:53:14.050Z,30.30
2018-03-20T01:54:17.242Z,29.25
2018-03-20T01:55:20.464Z,32.92
2018-03-20T01:56:24.592Z,30.45
2018-03-20T01:57:27.842Z,29.73
2018-03-20T01:58:31.085Z,31.70
2018-03-20T01:59:34.300Z,32.72
2018-03-20T02:00:37.538Z,30.52
2018-03-20T02:01:40.786Z,30.05
2018-03-20T02:02:44.822Z,31.20
2018-03-20T02:03:48.066Z,30.70
2018-03-20T02:04:52.080Z,30.85
2018-03-20T02:05:56.066Z,30.55
2018-03-20T02:07:00.058Z,33.45
2018-03-20T02:08:04.057Z,31.10
2018-03-20T02:09:07.362Z,31.10
2018-03-20T02:10:11.373Z,31.15
2018-03-20T02:11:15.342Z,28.75
2018-03-20T02:12:18.587Z,29.35
2018-03-20T02:13:21.845Z,27.90
2018-03-20T02:14:25.071Z,33.10
2018-03-20T02:15:28.312Z,30.58
2018-03-20T02:16:31.547Z,29.58
2018-03-20T02:17:34.776Z,31.20
2018-03-20T02:18:38.052Z,30.58
2018-03-20T02:19:41.287Z,32.40
2018-03-20T02:20:44.535Z,30.20
2018-03-20T02:21:47.794Z,31.52
2018-03-20T02:22:51.798Z,30.05
2018-03-20T02:23:55.799Z,32.38
2018-03-20T02:24:59.769Z,32.80
2018-03-20T02:26:03.008Z,32.83
2018-03-20T02:27:06.234Z,31.23
2018-03-20T02:28:09.473Z,31.77
2018-03-20T02:29:12.744Z,29.65
2018-03-20T02:30:16.809Z,30.27
2018-03-20T02:31:20.066Z,27.40
2018-03-20T02:32:24.876Z,30.85
2018-03-20T02:33:28.249Z,28.45
2018-03-20T02:34:31.530Z,26.48
2018-03-20T02:35:34.853Z,27.58
2018-03-20T02:36:38.085Z,27.33
2018-03-20T02:37:41.320Z,28.02
2018-03-20T02:38:44.563Z,26.80
2018-03-20T02:39:47.855Z,26.17
2018-03-20T02:40:51.118Z,28.98
2018-03-20T02:41:54.393Z,28.55
2018-03-20T02:42:57.611Z,28.38
2018-03-20T02:44:01.003Z,29.02
2018-03-20T02:45:04.245Z,26.52
2018-03-20T02:46:07.687Z,26.15
2018-03-20T02:47:11.751Z,27.90
2018-03-20T02:48:14.985Z,28.23
2018-03-20T02:49:18.692Z,28.77
2018-03-20T02:50:22.728Z,26.58
2018-03-20T02:51:26.024Z,27.35
2018-03-20T02:52:29.316Z,28.42
2018-03-20T02:53:32.548Z,26.77
2018-03-20T02:54:35.843Z,26.02
2018-03-20T02:55:39.844Z,25.62
2018-03-20T02:56:43.858Z,26.87
2018-03-20T02:57:47.126Z,24.05
2018-03-20T02:58:51.114Z,26.00
2018-03-20T02:59:55.106Z,27.10
2018-03-20T03:00:58.354Z,23.95
2018-03-20T03:02:02.357Z,25.10
2018-03-20T03:03:05.606Z,26.40
2018-03-20T03:04:08.834Z,27.62
2018-03-20T03:05:12.100Z,25.92
2018-03-20T03:06:15.326Z,26.50
2018-03-20T03:07:20.221Z,24.50
2018-03-20T03:08:23.422Z,25.17
2018-03-20T03:09:26.750Z,25.27
2018-03-20T03:10:29.980Z,24.35
2018-03-20T03:11:33.294Z,24.00
2018-03-20T03:12:37.367Z,23.77
2018-03-20T03:13:40.613Z,25.45
2018-03-20T03:14:43.909Z,23.92
2018-03-20T03:15:47.382Z,26.35
2018-03-20T03:16:50.730Z,25.55
2018-03-20T03:17:53.991Z,23.55
2018-03-20T03:18:57.196Z,25.55
2018-03-20T03:20:01.198Z,24.10
2018-03-20T03:21:05.273Z,25.77
2018-03-20T03:22:09.283Z,24.30
2018-03-20T03:23:12.542Z,26.10
2018-03-20T03:24:15.850Z,23.62
2018-03-20T03:25:19.087Z,25.88
2018-03-20T03:26:22.366Z,26.17
2018-03-20T03:27:25.596Z,24.67
2018-03-20T03:28:29.593Z,25.40
2018-03-20T03:29:32.942Z,25.60
2018-03-20T03:30:36.159Z,24.63
2018-03-20T03:31:39.412Z,25.30
2018-03-20T03:32:42.725Z,25.05
2018-03-20T03:33:45.937Z,24.80
2018-03-20T03:34:49.968Z,23.73
2018-03-20T03:35:53.215Z,23.00
2018-03-20T03:36:56.509Z,25.15
2018-03-20T03:38:00.519Z,24.42
2018-03-20T03:39:03.767Z,24.17
2018-03-20T03:40:07.225Z,25.88
2018-03-20T03:41:10.463Z,24.75
2018-03-20T03:42:14.543Z,22.65
2018-03-20T03:43:17.794Z,23.85
2018-03-20T03:44:21.017Z,22.70
2018-03-20T03:45:24.261Z,24.50
2018-03-20T03:46:27.493Z,24.33
2018-03-20T03:47:31.508Z,23.48
2018-03-20T03:48:34.769Z,24.48
2018-03-20T03:49:38.026Z,24.17
2018-03-20T03:50:41.318Z,24.60
2018-03-20T03:51:44.616Z,23.87
2018-03-20T03:52:47.830Z,23.67
2018-03-20T03:53:51.840Z,26.12
2018-03-20T03:54:55.077Z,23.12
2018-03-20T03:55:58.350Z,24.90
2018-03-20T03:57:01.563Z,24.75
2018-03-20T03:58:04.861Z,24.05
2018-03-20T03:59:08.913Z,23.42
2018-03-20T04:00:12.286Z,25.98
2018-03-20T04:01:15.541Z,27.52
2018-03-20T04:02:18.874Z,26.33
2018-03-20T04:03:22.260Z,25.45
2018-03-20T04:04:25.493Z,23.62
2018-03-20T04:05:28.763Z,23.80
2018-03-20T04:06:32.844Z,24.10
2018-03-20T04:07:36.084Z,24.00
2018-03-20T04:08:39.315Z,23.42
2018-03-20T04:09:43.324Z,24.75
2018-03-20T04:10:46.570Z,25.98
2018-03-20T04:11:49.882Z,24.15
2018-03-20T04:12:53.139Z,23.65
2018-03-20T04:13:56.364Z,24.23
2018-03-20T04:14:59.603Z,25.15
2018-03-20T04:16:02.951Z,24.20
2018-03-20T04:17:06.145Z,25.25
2018-03-20T04:18:09.378Z,22.40
2018-03-20T04:19:12.700Z,23.83
2018-03-20T04:20:15.905Z,23.42
2018-03-20T04:21:19.904Z,25.00
2018-03-20T04:22:23.924Z,24.48
2018-03-20T04:23:27.188Z,26.33
2018-03-20T04:24:31.188Z,24.60
2018-03-20T04:25:35.189Z,26.50
2018-03-20T04:26:38.408Z,26.75
2018-03-20T04:27:41.649Z,28.12
2018-03-20T04:28:45.642Z,24.10
2018-03-20T04:29:48.889Z,27.20
2018-03-20T04:30:52.168Z,25.67
2018-03-20T04:31:55.403Z,26.08
2018-03-20T04:32:59.436Z,26.48
2018-03-20T04:34:02.711Z,25.88
2018-03-20T04:35:05.934Z,26.33
2018-03-20T04:36:09.181Z,25.75
2018-03-20T04:37:12.444Z,25.70
2018-03-20T04:38:16.457Z,23.30
2018-03-20T04:39:19.668Z,26.77
2018-03-20T04:40:22.974Z,26.12
2018-03-20T04:41:26.195Z,23.70
2018-03-20T04:42:30.193Z,24.45
2018-03-20T04:43:34.219Z,26.02
2018-03-20T04:44:38.259Z,25.25
2018-03-20T04:45:41.493Z,23.25
2018-03-20T04:46:44.836Z,26.17
2018-03-20T04:47:48.058Z,25.80
2018-03-20T04:48:52.036Z,24.67
2018-03-20T04:49:55.365Z,27.17
2018-03-20T04:50:58.584Z,25.05
2018-03-20T04:52:01.819Z,25.48
2018-03-20T04:53:05.106Z,25.27
2018-03-20T04:54:08.431Z,26.10
2018-03-20T04:55:11.720Z,26.67
2018-03-20T04:56:14.921Z,29.20
2018-03-20T04:57:18.941Z,26.17
2018-03-20T04:58:22.962Z,23.58
2018-03-20T04:59:26.194Z,25.60
2018-03-20T05:00:29.443Z,26.00
2018-03-20T05:01:32.671Z,24.83
2018-03-20T05:02:36.654Z,25.42
2018-03-20T05:03:39.883Z,25.70
2018-03-20T05:04:43.157Z,24.48
2018-03-20T05:05:46.352Z,25.02
2018-03-20T05:06:49.590Z,24.80
2018-03-20T05:07:52.820Z,24.20
2018-03-20T05:08:56.252Z,26.55
2018-03-20T05:09:59.458Z,22.98
2018-03-20T05:11:03.455Z,23.73
2018-03-20T05:12:06.677Z,22.73
2018-03-20T05:13:09.929Z,24.73
2018-03-20T05:14:13.982Z,23.60
2018-03-20T05:15:17.266Z,25.02
2018-03-20T05:16:20.473Z,23.23
2018-03-20T05:17:23.713Z,25.02
2018-03-20T05:18:27.039Z,26.37
2018-03-20T05:19:46.060Z,25.75
2018-03-20T05:22:23.080Z,25.17
2018-03-20T05:24:55.064Z,23.75
2018-03-20T05:25:59.080Z,23.40
2018-03-20T05:27:02.317Z,23.45
2018-03-20T05:28:05.528Z,22.40
2018-03-20T05:29:09.574Z,24.80
2018-03-20T05:30:12.801Z,23.25
2018-03-20T05:31:16.081Z,22.65
2018-03-20T05:32:19.332Z,23.45
2018-03-20T05:33:22.552Z,22.00
2018-03-20T05:34:26.552Z,23.80
2018-03-20T05:35:29.944Z,21.77
2018-03-20T05:36:33.172Z,23.02
2018-03-20T05:37:36.404Z,23.50
2018-03-20T05:38:39.665Z,21.33
2018-03-20T05:39:42.953Z,21.40
2018-03-20T05:40:46.191Z,21.83
2018-03-20T05:41:50.181Z,22.40
2018-03-20T05:42:54.330Z,23.20
2018-03-20T05:43:57.629Z,23.42
2018-03-20T05:45:00.876Z,23.27
2018-03-20T05:46:04.134Z,22.13
2018-03-20T05:49:04.951Z,21.45
2018-03-20T05:50:13.918Z,23.23
2018-03-20T05:51:21.003Z,21.73
2018-03-20T05:52:25.153Z,21.27
2018-03-20T05:53:29.184Z,23.58
2018-03-20T05:54:32.449Z,22.05
2018-03-20T05:55:36.449Z,22.52
2018-03-20T05:56:40.511Z,22.60
2018-03-20T05:57:43.811Z,22.25
2018-03-20T05:58:47.154Z,24.05
2018-03-20T05:59:50.399Z,22.90
2018-03-20T06:00:53.784Z,20.98
2018-03-20T06:01:57.034Z,22.02
2018-03-20T06:03:00.261Z,23.87
2018-03-20T06:04:03.507Z,23.30
2018-03-20T06:05:06.732Z,21.83
2018-03-20T06:06:09.987Z,23.77
2018-03-20T06:07:13.253Z,25.60
2018-03-20T06:08:16.477Z,22.35
2018-03-20T06:09:19.779Z,21.85
2018-03-20T06:10:23.870Z,23.85
2018-03-20T06:11:27.861Z,22.48
2018-03-20T06:12:31.138Z,22.58
2018-03-20T06:13:34.344Z,24.23
2018-03-20T06:14:37.609Z,22.73
2018-03-20T06:15:40.817Z,23.55
2018-03-20T06:16:44.048Z,23.00
2018-03-20T06:17:47.352Z,25.23
2018-03-20T06:18:51.353Z,23.12
2018-03-20T06:19:55.333Z,23.02
2018-03-20T06:20:58.579Z,21.55
2018-03-20T06:22:01.828Z,22.05
2018-03-20T06:23:05.842Z,22.83
2018-03-20T06:24:09.285Z,25.27
2018-03-20T06:25:12.574Z,24.45
2018-03-20T06:26:15.835Z,23.30
2018-03-20T06:27:19.065Z,24.20
2018-03-20T06:28:23.108Z,25.45
2018-03-20T06:29:26.316Z,25.48
2018-03-20T06:30:29.531Z,23.60
2018-03-20T06:31:33.553Z,24.67
2018-03-20T06:32:36.784Z,25.42
2018-03-20T06:33:40.164Z,24.45
2018-03-20T06:34:43.365Z,25.70
2018-03-20T06:35:46.621Z,24.65
2018-03-20T06:36:49.978Z,25.27
2018-03-20T06:37:54.069Z,24.48
2018-03-20T06:38:58.050Z,23.67
2018-03-20T06:40:02.062Z,24.50
2018-03-20T06:41:06.077Z,25.23
2018-03-20T06:42:09.304Z,25.88
2018-03-20T06:43:13.416Z,25.67
2018-03-20T06:44:16.647Z,26.60
2018-03-20T06:45:20.000Z,26.20
2018-03-20T06:46:23.308Z,24.73
2018-03-20T06:47:26.561Z,24.25
2018-03-20T06:48:29.808Z,27.67
2018-03-20T06:49:33.044Z,23.92
2018-03-20T06:50:37.029Z,26.90
2018-03-20T06:51:40.737Z,25.05
2018-03-20T06:52:44.724Z,26.45
2018-03-20T06:53:47.977Z,24.40
2018-03-20T06:54:51.410Z,26.50
2018-03-20T06:55:54.634Z,26.35
2018-03-20T06:56:57.853Z,26.98
2018-03-20T06:58:01.082Z,24.37
2018-03-20T06:59:04.309Z,25.92
2018-03-20T07:00:07.593Z,24.48
2018-03-20T07:01:10.803Z,22.67
2018-03-20T07:02:14.791Z,24.60
2018-03-20T07:03:18.030Z,26.50
2018-03-20T07:04:21.264Z,24.70
2018-03-20T07:05:25.261Z,25.40
2018-03-20T07:06:29.251Z,25.23
2018-03-20T07:07:32.517Z,23.92
2018-03-20T07:08:35.785Z,25.55
2018-03-20T07:09:39.030Z,26.67
2018-03-20T07:10:43.032Z,26.15
2018-03-20T07:11:47.076Z,23.75
2018-03-20T07:12:50.320Z,24.37
2018-03-20T07:13:53.547Z,24.58
2018-03-20T07:14:56.808Z,23.50
2018-03-20T07:16:00.059Z,24.42
2018-03-20T07:17:04.041Z,22.95
2018-03-20T07:18:07.277Z,23.98
2018-03-20T07:19:10.500Z,22.40
2018-03-20T07:20:13.768Z,22.55
2018-03-20T07:21:16.995Z,23.33
2018-03-20T07:22:21.006Z,24.60
2018-03-20T07:23:24.246Z,24.17
2018-03-20T07:24:27.503Z,24.52
2018-03-20T07:25:30.730Z,23.08
2018-03-20T07:26:33.950Z,23.52
2018-03-20T07:27:37.185Z,22.83
2018-03-20T07:28:40.450Z,24.20
2018-03-20T07:29:43.666Z,22.33
2018-03-20T07:30:47.679Z,24.30
2018-03-20T07:31:50.939Z,21.92
2018-03-20T07:32:54.165Z,22.20
2018-03-20T07:33:57.431Z,23.90
2018-03-20T07:35:00.682Z,23.25
2018-03-20T07:36:03.929Z,22.80
2018-03-20T07:37:07.156Z,24.15
2018-03-20T07:38:10.394Z,23.12
2018-03-20T07:39:13.633Z,21.50
2018-03-20T07:40:17.637Z,21.87
2018-03-20T07:41:21.708Z,22.77
2018-03-20T07:42:24.965Z,23.12
2018-03-20T07:43:28.227Z,24.70
2018-03-20T07:44:31.479Z,21.25
2018-03-20T07:45:34.763Z,21.25
2018-03-20T07:46:38.004Z,21.42
2018-03-20T07:47:41.255Z,23.42
2018-03-20T07:48:44.492Z,23.70
2018-03-20T07:49:47.732Z,22.13
2018-03-20T07:50:50.963Z,21.10
2018-03-20T07:51:54.309Z,21.58
2018-03-20T07:52:57.534Z,20.15
2018-03-20T07:54:00.793Z,21.60
2018-03-20T07:55:04.099Z,21.55
2018-03-20T07:56:07.324Z,19.70
2018-03-20T07:57:10.552Z,21.37
2018-03-20T07:58:13.798Z,20.88
2018-03-20T07:59:17.018Z,19.50
2018-03-20T08:00:20.260Z,21.87
2018-03-20T08:01:23.498Z,21.02
2018-03-20T08:02:26.729Z,21.65
2018-03-20T08:03:29.956Z,22.50
2018-03-20T08:04:34.258Z,22.42
2018-03-20T08:05:38.257Z,20.60
2018-03-20T08:06:41.494Z,20.70
2018-03-20T08:07:46.239Z,21.87
2018-03-20T08:08:50.261Z,23.02
2018-03-20T08:09:53.494Z,21.20
2018-03-20T08:10:56.744Z,21.70
2018-03-20T08:11:59.976Z,20.65
2018-03-20T08:13:04.043Z,20.52
2018-03-20T08:14:07.246Z,20.88
2018-03-20T08:15:11.992Z,20.23
2018-03-20T08:16:16.042Z,22.17
2018-03-20T08:17:19.364Z,18.40
2018-03-20T08:18:23.368Z,19.37
2018-03-20T08:19:26.652Z,19.42
2018-03-20T08:20:29.847Z,16.98
2018-03-20T08:21:33.838Z,18.33
2018-03-20T08:22:37.876Z,19.83
2018-03-20T08:23:41.108Z,19.33
2018-03-20T08:24:45.843Z,18.92
2018-03-20T08:25:49.886Z,17.02
2018-03-20T08:26:53.132Z,18.10
2018-03-20T08:27:57.153Z,20.02
2018-03-20T08:29:00.549Z,18.98
2018-03-20T08:30:03.805Z,18.33
2018-03-20T08:31:07.830Z,18.30
2018-03-20T08:32:11.062Z,18.80
2018-03-20T08:33:15.835Z,19.83
2018-03-20T08:34:19.110Z,19.67
2018-03-20T08:35:22.347Z,17.17
2018-03-20T08:36:25.586Z,19.27
2018-03-20T08:37:28.808Z,16.95
2018-03-20T08:38:32.042Z,18.45
2018-03-20T08:39:35.296Z,16.45
2018-03-20T08:40:39.305Z,18.20
2018-03-20T08:41:42.533Z,19.50
2018-03-20T08:42:45.758Z,17.83
2018-03-20T08:43:48.979Z,16.98
2018-03-20T08:44:52.241Z,18.25
2018-03-20T08:45:56.265Z,16.55
2018-03-20T08:46:59.503Z,17.23
2018-03-20T08:48:02.731Z,16.52
2018-03-20T08:49:06.004Z,16.48
2018-03-20T08:50:09.234Z,18.00
2018-03-20T08:51:12.564Z,18.12
2018-03-20T08:52:15.809Z,17.60
2018-03-20T08:53:19.035Z,16.45
2018-03-20T08:54:22.336Z,16.65
2018-03-20T08:55:25.588Z,14.93
2018-03-20T08:56:29.589Z,15.65
2018-03-20T08:57:33.596Z,15.68
2018-03-20T08:58:37.610Z,17.10
2018-03-20T08:59:41.588Z,13.70
2018-03-20T09:00:45.652Z,17.45
2018-03-20T09:01:48.929Z,13.62
2018-03-20T09:02:52.159Z,14.45
2018-03-20T09:03:56.176Z,14.85
2018-03-20T09:05:04.290Z,15.50
2018-03-20T09:06:07.511Z,14.35
2018-03-20T09:07:10.753Z,13.95
2018-03-20T09:08:13.971Z,13.98
2018-03-20T09:09:17.197Z,15.35
2018-03-20T09:10:21.205Z,14.93
2018-03-20T09:11:24.443Z,14.48
2018-03-20T09:12:28.512Z,15.15
2018-03-20T09:13:31.670Z,16.00
2018-03-20T09:14:34.949Z,14.93
2018-03-20T09:15:38.946Z,15.60
2018-03-20T09:16:42.964Z,15.00
2018-03-20T09:17:46.190Z,14.52
2018-03-20T09:18:49.437Z,14.98
2018-03-20T09:19:52.695Z,13.98
2018-03-20T09:20:56.696Z,14.75
2018-03-20T09:22:00.680Z,15.45
2018-03-20T09:23:04.093Z,16.52
2018-03-20T09:24:07.311Z,15.63
2018-03-20T09:25:10.574Z,13.30
2018-03-20T09:26:13.826Z,15.90
2018-03-20T09:27:17.841Z,13.43
2018-03-20T09:28:21.072Z,14.15
2018-03-20T09:29:24.304Z,12.68
2018-03-20T09:30:27.532Z,12.90
2018-03-20T09:31:30.825Z,12.57
2018-03-20T09:32:34.046Z,13.05
2018-03-20T09:33:38.081Z,10.90
2018-03-20T09:34:41.322Z,13.10
2018-03-20T09:35:44.521Z,12.70
2018-03-20T09:36:47.745Z,10.98
2018-03-20T09:37:51.036Z,12.40
2018-03-20T09:38:54.315Z,11.70
2018-03-20T09:39:57.546Z,13.68
2018-03-20T09:41:01.552Z,12.37
2018-03-20T09:42:04.746Z,13.10
2018-03-20T09:43:07.981Z,12.75
2018-03-20T09:44:11.256Z,13.80
2018-03-20T09:45:14.512Z,12.80
2018-03-20T09:46:17.754Z,13.77
2018-03-20T09:47:20.973Z,14.73
2018-03-20T09:48:24.204Z,12.82
2018-03-20T09:49:27.438Z,13.25
2018-03-20T09:50:30.685Z,12.65
2018-03-20T09:51:33.940Z,13.23
2018-03-20T09:52:37.195Z,13.35
2018-03-20T09:53:40.554Z,12.15
2018-03-20T09:54:43.788Z,12.77
2018-03-20T09:55:46.996Z,10.63
2018-03-20T09:56:50.220Z,11.73
2018-03-20T09:57:53.441Z,11.10
2018-03-20T09:58:56.680Z,9.85
2018-03-20T09:59:59.910Z,10.63
2018-03-20T10:01:03.172Z,11.00
2018-03-20T10:02:06.389Z,9.75
2018-03-20T10:03:09.632Z,10.98
2018-03-20T10:04:12.850Z,10.40
2018-03-20T10:05:16.097Z,11.77
2018-03-20T10:06:19.325Z,12.32
2018-03-20T10:07:23.314Z,10.52
2018-03-20T10:08:26.644Z,11.55
2018-03-20T10:09:29.855Z,12.88
2018-03-20T10:10:33.083Z,11.35
2018-03-20T10:11:37.097Z,11.10
2018-03-20T10:12:40.408Z,11.20
2018-03-20T10:13:43.633Z,10.30
2018-03-20T10:14:46.955Z,11.48
2018-03-20T10:15:50.188Z,10.43
2018-03-20T10:16:53.391Z,10.18
2018-03-20T10:17:57.510Z,10.85
2018-03-20T10:19:01.600Z,10.90
2018-03-20T10:20:04.764Z,11.90
2018-03-20T10:21:07.953Z,10.88
2018-03-20T10:22:11.192Z,11.77
2018-03-20T10:23:14.424Z,12.23
2018-03-20T10:24:17.664Z,11.68
2018-03-20T10:25:20.913Z,10.05
2018-03-20T10:26:24.921Z,10.05
2018-03-20T10:27:28.182Z,11.10
2018-03-20T10:28:31.408Z,10.25
2018-03-20T10:29:34.674Z,9.95
2018-03-20T10:30:37.984Z,9.45
2018-03-20T10:31:41.216Z,9.55
2018-03-20T10:32:45.208Z,10.38
2018-03-20T10:33:48.450Z,9.23
2018-03-20T10:34:51.690Z,9.88
2018-03-20T10:35:55.662Z,8.43
2018-03-20T10:36:58.923Z,9.63
2018-03-20T10:38:02.219Z,8.85
2018-03-20T10:39:05.410Z,8.30
2018-03-20T10:40:08.628Z,9.10
2018-03-20T10:41:12.618Z,10.55
2018-03-20T10:42:16.590Z,9.90
2018-03-20T10:43:19.897Z,9.07
2018-03-20T10:44:23.901Z,9.20
2018-03-20T10:45:27.923Z,9.07
2018-03-20T10:46:31.885Z,9.30
2018-03-20T10:47:35.125Z,9.77
2018-03-20T10:48:38.465Z,8.68
2018-03-20T10:49:41.653Z,11.00
2018-03-20T10:50:45.645Z,8.30
2018-03-20T10:51:49.667Z,9.45
2018-03-20T10:52:53.706Z,8.80
2018-03-20T10:53:56.988Z,9.10
2018-03-20T10:55:00.241Z,9.55
2018-03-20T10:56:04.198Z,10.18
2018-03-20T10:57:07.494Z,10.35
2018-03-20T10:58:10.717Z,10.48
2018-03-20T10:59:13.954Z,10.50
2018-03-20T11:00:17.237Z,10.38
2018-03-20T11:01:26.273Z,9.93
2018-03-20T11:02:32.123Z,10.07
2018-03-20T11:03:36.092Z,9.48
2018-03-20T11:04:39.377Z,9.68
2018-03-20T11:05:42.565Z,9.48
2018-03-20T11:06:45.817Z,9.80
2018-03-20T11:07:49.030Z,9.50
2018-03-20T11:08:52.279Z,9.40
2018-03-20T11:09:55.536Z,8.20
2018-03-20T11:10:58.760Z,8.55
2018-03-20T11:12:01.977Z,9.27
2018-03-20T11:13:05.237Z,8.32
2018-03-20T11:14:08.475Z,10.13
2018-03-20T11:15:11.705Z,10.77
2018-03-20T11:16:14.933Z,10.05
2018-03-20T11:17:18.251Z,9.27
2018-03-20T11:18:21.469Z,8.23
2018-03-20T11:19:25.482Z,11.70
2018-03-20T11:20:29.493Z,9.68
2018-03-20T11:21:33.552Z,8.80
2018-03-20T11:22:36.766Z,9.30
2018-03-20T11:23:40.090Z,9.45
2018-03-20T11:24:43.326Z,9.45
2018-03-20T11:25:46.501Z,8.73
2018-03-20T11:26:49.729Z,9.80
2018-03-20T11:27:52.945Z,9.55
2018-03-20T11:28:56.189Z,9.70
2018-03-20T11:29:59.460Z,10.13
2018-03-20T11:31:02.654Z,9.00
2018-03-20T11:32:05.895Z,9.52
2018-03-20T11:33:09.131Z,8.85
2018-03-20T11:34:12.448Z,9.27
2018-03-20T11:35:15.674Z,9.50
2018-03-20T11:36:19.648Z,8.43
2018-03-20T11:37:22.866Z,8.77
2018-03-20T11:38:26.092Z,8.40
2018-03-20T11:39:29.343Z,9.27
2018-03-20T11:40:32.572Z,9.98
2018-03-20T11:41:35.830Z,9.50
2018-03-20T11:42:39.024Z,9.27
2018-03-20T11:43:43.084Z,8.98
2018-03-20T11:44:46.305Z,9.80
2018-03-20T11:45:49.542Z,9.55
2018-03-20T11:46:52.765Z,8.82
2018-03-20T11:47:56.012Z,9.38
2018-03-20T11:48:59.274Z,11.07
2018-03-20T11:50:02.466Z,9.90
2018-03-20T11:51:05.767Z,10.18
2018-03-20T11:52:08.997Z,9.00
2018-03-20T11:53:12.226Z,9.70
2018-03-20T11:54:15.450Z,9.60
2018-03-20T11:55:18.685Z,11.05
2018-03-20T11:56:21.930Z,8.65
2018-03-20T11:57:25.904Z,8.70
2018-03-20T11:58:29.113Z,8.00
2018-03-20T11:59:32.330Z,8.90
2018-03-20T12:00:35.576Z,8.80
2018-03-20T12:01:38.797Z,9.43
2018-03-20T12:02:42.025Z,8.50
2018-03-20T12:03:45.234Z,8.68
2018-03-20T12:04:50.001Z,8.73
2018-03-20T12:05:53.262Z,8.38
2018-03-20T12:06:57.281Z,7.55
2018-03-20T12:08:08.132Z,9.00
2018-03-20T12:09:23.337Z,7.57
2018-03-20T12:10:26.556Z,7.30
2018-03-20T12:11:30.531Z,8.50
2018-03-20T12:12:33.753Z,8.77
2018-03-20T12:13:36.966Z,8.75
2018-03-20T12:14:40.210Z,9.68
2018-03-20T12:15:44.180Z,9.02
2018-03-20T12:16:47.397Z,10.07
2018-03-20T12:17:50.714Z,8.85
2018-03-20T12:18:53.921Z,8.73
2018-03-20T12:19:57.144Z,10.23
2018-03-20T12:21:01.145Z,8.35
2018-03-20T12:22:05.143Z,9.48
2018-03-20T12:23:09.158Z,10.13
2018-03-20T12:24:12.396Z,9.15
2018-03-20T12:25:15.686Z,9.15
2018-03-20T12:26:18.837Z,8.65
2018-03-20T12:27:22.094Z,10.25
2018-03-20T12:28:25.397Z,10.18
2018-03-20T12:29:28.597Z,9.02
2018-03-20T12:30:31.860Z,10.02
2018-03-20T12:31:35.073Z,9.23
2018-03-20T12:32:38.311Z,10.05
2018-03-20T12:33:41.578Z,11.02
2018-03-20T12:34:45.570Z,8.88
2018-03-20T12:35:49.628Z,9.43
2018-03-20T12:36:52.924Z,10.13
2018-03-20T12:37:56.140Z,8.63
2018-03-20T12:39:00.122Z,9.68
2018-03-20T12:40:03.434Z,9.40
2018-03-20T12:41:06.649Z,9.90
2018-03-20T12:42:09.906Z,10.20
2018-03-20T12:43:13.237Z,9.90
2018-03-20T12:44:16.456Z,8.90
2018-03-20T12:45:19.687Z,10.00
2018-03-20T12:46:22.904Z,8.73
2018-03-20T12:47:26.164Z,8.98
2018-03-20T12:48:29.433Z,9.40
2018-03-20T12:49:33.450Z,7.65
2018-03-20T12:50:36.718Z,8.70
2018-03-20T12:51:40.739Z,8.93
2018-03-20T12:52:44.706Z,8.77
2018-03-20T12:53:48.701Z,9.52
2018-03-20T12:54:51.912Z,9.50
2018-03-20T12:55:55.144Z,10.10
2018-03-20T12:56:58.385Z,9.35
2018-03-20T12:58:01.639Z,8.60
2018-03-20T12:59:04.890Z,9.15
2018-03-20T13:00:08.200Z,8.40
2018-03-20T13:01:11.425Z,8.50
2018-03-20T13:02:14.669Z,8.93
2018-03-20T13:03:17.864Z,9.18
2018-03-20T13:04:21.883Z,9.20
2018-03-20T13:05:25.109Z,9.73
2018-03-20T13:06:28.322Z,7.82
2018-03-20T13:07:32.327Z,8.93
2018-03-20T13:08:36.317Z,8.98
2018-03-20T13:09:39.528Z,10.07
2018-03-20T13:10:42.814Z,8.88
2018-03-20T13:11:46.191Z,8.85
2018-03-20T13:12:50.169Z,8.82
2018-03-20T13:13:53.560Z,8.43
2018-03-20T13:14:57.590Z,8.07
2018-03-20T13:16:00.808Z,8.15
2018-03-20T13:17:04.029Z,9.27
2018-03-20T13:18:07.253Z,9.70
2018-03-20T13:19:10.472Z,8.73
2018-03-20T13:20:13.681Z,8.70
2018-03-20T13:21:17.701Z,9.27
2018-03-20T13:22:21.670Z,8.43
2018-03-20T13:23:24.958Z,8.68
2018-03-20T13:24:28.142Z,8.40
2018-03-20T13:25:32.120Z,9.20
2018-03-20T13:26:35.332Z,8.43
2018-03-20T13:27:39.359Z,8.43
2018-03-20T13:28:42.583Z,9.70
2018-03-20T13:29:45.805Z,8.48
2018-03-20T13:30:49.788Z,7.68
2018-03-20T13:31:53.969Z,7.68
2018-03-20T13:32:57.175Z,7.90
2018-03-20T13:34:00.404Z,8.15
2018-03-20T13:35:03.624Z,8.80
2018-03-20T13:36:06.869Z,8.70
2018-03-20T13:37:10.101Z,7.30
2018-03-20T13:38:13.423Z,7.82
2018-03-20T13:39:16.663Z,8.55
2018-03-20T13:40:19.861Z,8.80
2018-03-20T13:41:23.901Z,8.77
2018-03-20T13:42:27.118Z,7.45
2018-03-20T13:43:30.343Z,8.25
2018-03-20T13:44:33.569Z,8.57
2018-03-20T13:45:36.810Z,8.63
2018-03-20T13:46:40.030Z,7.97
2018-03-20T13:47:43.256Z,7.25
2018-03-20T13:48:47.245Z,8.25